• Join FlightAware (Why Join?)
  • Login
  • US Flag 
07:38AM EDT


 

Airport Tracker/Info


-or-


 

Live Flight TrackerFlight Track Log ✈ N498QS ✈ 25-Jun-2013 ✈ TXKF / BDA - KPBI

Flight Track Log - Related Links

Times and Time Zones

All times are in EDT time to prevent confusion due to time zone crossing. See the N498QS flight status page for this flight to view local times or setup timezone preferences in your user account.

Time Position Orientation Groundspeed Altitude Reporting Facility
EDT Latitude Longitude Course Direction KTS MPH feet Rate Location/Type
12:54PM 31.7617 -66.6825 251° West  Level Estimated
12:54PM 32.3667 -64.6833 270° West 300 345 2,600  Level New York Oceanic (ODAPS)
12:55PM 31.7204 -66.8151 250° West  Level Estimated
12:56PM 31.6790 -66.9477 250° West  Level Estimated
12:57PM 31.6374 -67.0801 250° West  Level Estimated
12:58PM 31.5957 -67.2124 250° West  Level Estimated
12:58PM 32.3667 -64.6833 270° West 300 345 7,000  Level New York Oceanic (ODAPS)
12:58PM 32.3667 -65.0833 270° West 436 502 7,000 -3,120 Level New York Oceanic (ODAPS)
12:59PM 31.5539 -67.3445 250° West  Level Estimated
01:00PM 32.3691 -65.5334 270° West 300 345 2,600  Level FlightAware Transoceanic
01:01PM 32.3695 -65.6834 270° West 300 345 2,600  Level FlightAware Transoceanic
01:02PM 32.3698 -65.8334 270° West 300 345 2,600  Level FlightAware Transoceanic
01:03PM 32.3699 -65.9834 270° West 300 345 2,600 8,940 Level FlightAware Transoceanic
01:03PM 32.3667 -65.0833 270° West 417 480 17,700  Climbing New York Oceanic (ODAPS)
01:04PM 32.3698 -66.1334 270° West 300 345 2,600 -8,160 Descending FlightAware Transoceanic
01:05PM 32.3697 -66.2289 270° West 436 502 7,000 2,160 Climbing FlightAware Transoceanic
01:06PM 32.3693 -66.3721 270° West 436 502 7,000  Level FlightAware Transoceanic
01:07PM 32.3688 -66.5153 270° West 436 502 7,000  Level FlightAware Transoceanic
01:08PM 32.3681 -66.6585 270° West 436 502 7,000 5,340 Level FlightAware Transoceanic
01:09PM 32.3677 -66.7270 270° West 417 480 17,700 5,340 Climbing FlightAware Transoceanic
01:10PM 32.3669 -66.8639 270° West 417 480 17,700  Level FlightAware Transoceanic
01:11PM 32.3658 -67.0009 269° West 417 480 17,700  Level FlightAware Transoceanic
01:12PM 32.3647 -67.1378 269° West 417 480 17,700  Level FlightAware Transoceanic
01:13PM 32.3634 -67.2748 269° West 417 480 17,700  Level FlightAware Transoceanic
01:14PM 32.3619 -67.4118 269° West 417 480 17,700  Level FlightAware Transoceanic
01:15PM 32.3603 -67.5487 269° West 417 480 17,700  Level FlightAware Transoceanic
01:16PM 32.3585 -67.6856 269° West 417 480 17,700  Level FlightAware Transoceanic
01:17PM 32.3566 -67.8226 269° West 417 480 17,700  Level FlightAware Transoceanic
01:18PM 32.3546 -67.9595 269° West 417 480 17,700  Level FlightAware Transoceanic
01:19PM 32.3523 -68.0964 269° West 417 480 17,700  Level FlightAware Transoceanic
01:20PM 32.3500 -68.2333 245° Southwest 417 480 17,700 8,700 Level FlightAware Transoceanic
01:20PM 32.3500 -68.2333 245° Southwest 480 552 35,000  Climbing New York Oceanic (ODAPS)
01:21PM 32.2920 -68.3824 245° Southwest 417 480 17,700 -17,040 Descending FlightAware Transoceanic
01:22PM 32.2339 -68.5312 245° Southwest 417 480 17,700  Level FlightAware Transoceanic
01:23PM 32.1755 -68.6798 245° Southwest 417 480 17,700  Level FlightAware Transoceanic
01:24PM 32.1170 -68.8283 245° Southwest 417 480 17,700  Level FlightAware Transoceanic
01:25PM 32.0583 -68.9765 245° Southwest 417 480 17,700  Level FlightAware Transoceanic
01:26PM 31.9995 -69.1246 245° Southwest 417 480 17,700 8,640 Level FlightAware Transoceanic
01:27PM 31.8893 -69.4002 245° Southwest 480 552 35,000 8,640 Climbing FlightAware Transoceanic
01:28PM 31.8310 -69.5452 245° Southwest 480 552 35,000  Level FlightAware Transoceanic
01:29PM 31.7725 -69.6900 245° Southwest 480 552 35,000  Level FlightAware Transoceanic
01:30PM 31.7138 -69.8347 244° Southwest 480 552 35,000  Level FlightAware Transoceanic
01:31PM 31.6550 -69.9792 244° Southwest 480 552 35,000  Level FlightAware Transoceanic
01:32PM 31.5960 -70.1235 244° Southwest 480 552 35,000  Level FlightAware Transoceanic
01:33PM 31.5368 -70.2676 244° Southwest 480 552 35,000  Level FlightAware Transoceanic
01:34PM 31.4775 -70.4115 244° Southwest 480 552 35,000  Level FlightAware Transoceanic
01:35PM 31.4181 -70.5553 244° Southwest 480 552 35,000  Level FlightAware Transoceanic
01:36PM 31.3584 -70.6988 244° Southwest 480 552 35,000  Level FlightAware Transoceanic
01:37PM 31.2986 -70.8422 244° Southwest 480 552 35,000  Level FlightAware Transoceanic
01:38PM 31.2387 -70.9854 244° Southwest 480 552 35,000  Level FlightAware Transoceanic
01:38PM 31.4500 -70.5000 244° Southwest 509 586 35,000  Level New York Oceanic (ODAPS)
01:39PM 31.1786 -71.1284 244° Southwest 480 552 35,000  Level FlightAware Transoceanic
01:40PM 31.1183 -71.2713 244° Southwest 480 552 35,000  Level FlightAware Transoceanic
01:41PM 31.0579 -71.4139 244° Southwest 480 552 35,000  Level FlightAware Transoceanic
01:42PM 30.9973 -71.5564 244° Southwest 480 552 35,000  Level FlightAware Transoceanic
01:43PM 30.9365 -71.6987 243° Southwest 480 552 35,000  Level FlightAware Transoceanic
01:44PM 30.9014 -71.7977 243° Southwest 509 586 35,000  Level FlightAware Transoceanic
01:45PM 30.8396 -71.9410 243° Southwest 509 586 35,000  Level FlightAware Transoceanic
01:46PM 30.7777 -72.0841 243° Southwest 509 586 35,000  Level FlightAware Transoceanic
01:47PM 30.7156 -72.2269 243° Southwest 509 586 35,000  Level FlightAware Transoceanic
01:48PM 30.6534 -72.3697 243° Southwest 509 586 35,000  Level FlightAware Transoceanic
01:49PM 30.5910 -72.5122 243° Southwest 509 586 35,000  Level FlightAware Transoceanic
01:50PM 30.5284 -72.6545 243° Southwest 509 586 35,000  Level FlightAware Transoceanic
01:51PM 30.4657 -72.7967 243° Southwest 509 586 35,000  Level FlightAware Transoceanic
01:51PM 30.5667 -72.5667 243° Southwest 488 562 35,000  Level New York Oceanic (ODAPS)
01:52PM 30.4029 -72.9387 243° Southwest 509 586 35,000  Level FlightAware Transoceanic
01:53PM 30.3399 -73.0805 243° Southwest 509 586 35,000  Level FlightAware Transoceanic
01:54PM 30.2767 -73.2221 243° Southwest 509 586 35,000  Level FlightAware Transoceanic
01:55PM 30.2134 -73.3635 243° Southwest 509 586 35,000  Level FlightAware Transoceanic
01:56PM 30.1500 -73.5047 243° Southwest 509 586 35,000  Level FlightAware Transoceanic
01:57PM 30.0684 -73.6849 242° Southwest 488 562 35,000  Level FlightAware Transoceanic
01:58PM 30.0055 -73.8238 242° Southwest 488 562 35,000  Level FlightAware Transoceanic
01:59PM 29.9424 -73.9626 242° Southwest 488 562 35,000  Level FlightAware Transoceanic
02:00PM 29.8791 -74.1012 242° Southwest 488 562 35,000  Level FlightAware Transoceanic
02:01PM 29.8158 -74.2397 242° Southwest 488 562 35,000  Level FlightAware Transoceanic
02:02PM 29.7522 -74.3780 242° Southwest 488 562 35,000  Level FlightAware Transoceanic
02:03PM 29.6886 -74.5161 242° Southwest 488 562 35,000  Level FlightAware Transoceanic
02:04PM 29.6248 -74.6540 242° Southwest 488 562 35,000  Level FlightAware Transoceanic
02:05PM 29.5608 -74.7917 242° Southwest 488 562 35,000  Level FlightAware Transoceanic
02:06PM 29.4967 -74.9293 242° Southwest 488 562 35,000  Level FlightAware Transoceanic
02:07PM 29.4325 -75.0667 242° Southwest 488 562 35,000  Level FlightAware Transoceanic
02:08PM 29.3681 -75.2039 242° Southwest 488 562 35,000  Level FlightAware Transoceanic
02:09PM 29.3036 -75.3410 242° Southwest 488 562 35,000  Level FlightAware Transoceanic
02:10PM 29.2389 -75.4779 242° Southwest 488 562 35,000  Level FlightAware Transoceanic
02:11PM 29.1741 -75.6146 241° Southwest 488 562 35,000  Level FlightAware Transoceanic
02:12PM 29.1092 -75.7511 241° Southwest 488 562 35,000  Level FlightAware Transoceanic
02:13PM 29.0441 -75.8875 241° Southwest 488 562 35,000  Level FlightAware Transoceanic
02:14PM 28.9789 -76.0236 241° Southwest 488 562 35,000  Level FlightAware Transoceanic
02:15PM 28.9135 -76.1597 241° Southwest 488 562 35,000  Level FlightAware Transoceanic
02:16PM 28.8480 -76.2955 241° Southwest 488 562 35,000  Level FlightAware Transoceanic
02:17PM 28.7824 -76.4312 241° Southwest 488 562 35,000  Level FlightAware Transoceanic
02:18PM 28.7167 -76.5667 239° Southwest 488 562 35,000  Level FlightAware Transoceanic
02:19PM 28.6544 -76.6846 239° Southwest 488 562 35,000  Level FlightAware Transoceanic
02:20PM 28.5921 -76.8024 239° Southwest 488 562 35,000  Level FlightAware Transoceanic
02:21PM 28.5296 -76.9200 239° Southwest 488 562 35,000  Level FlightAware Transoceanic
02:22PM 28.4108 -77.1089 239° Southwest 481 554 35,000 -300 Level Miami Center
02:23PM 28.3356 -77.2503 239° Southwest 503 579 34,300 -1,140 Descending Miami Center
02:24PM 28.2619 -77.3867 239° Southwest 513 590 32,800 -1,500 Descending Miami Center
02:25PM 28.1883 -77.5253 239° Southwest 513 590 31,300 -1,500 Descending Miami Center
02:26PM 28.1356 -77.6711 248° West 513 590 29,800 -1,500 Descending Miami Center
02:27PM 28.0822 -77.8236 248° West 513 590 28,300 -1,500 Descending Miami Center
02:28PM 28.0228 -77.9714 246° West 518 596 26,800 -1,500 Descending Miami Center
02:29PM 27.9714 -78.1189 249° West 518 596 25,300 -1,500 Descending Miami Center
02:30PM 27.9222 -78.2594 248° West 507 583 23,800 -1,320 Descending Miami Center
02:31PM 27.8978 -78.4003 259° West 471 542 22,700 -1,020 Descending Miami Center
02:32PM 27.8839 -78.5292 263° West 451 519 21,800 -960 Descending Miami Center
02:33PM 27.8717 -78.6583 264° West 429 494 20,800 -1,020 Descending Miami Center
02:34PM 27.8617 -78.7967 265° West 412 474 19,800 -1,020 Descending Miami Center
02:35PM 27.8308 -78.9208 254° West 406 467 18,800 -1,020 Descending Miami Center
02:36PM 27.7956 -79.0375 251° West 406 467 17,800 -1,080 Descending Miami Center
02:37PM 27.7647 -79.1425 252° West 400 460 16,700 -1,140 Descending Miami Center
02:38PM 27.7336 -79.2614 254° West 394 453 15,600 -1,020 Descending Miami Center
02:39PM 27.6958 -79.3850 251° West 389 448 14,700 -900 Descending Miami Center
02:40PM 27.6628 -79.4944 251° West 384 442 13,900 -900 Descending Miami Center
02:41PM 27.5881 -79.5725 223° Southwest 372 428 13,000 -900 Descending Miami Center
02:42PM 27.5100 -79.6222 209° Southwest 360 414 12,100 -960 Descending Miami Center
02:43PM 27.4253 -79.6833 213° Southwest 342 394 11,100 -900 Descending Miami Center
02:44PM 27.3511 -79.7306 209° Southwest 323 372 10,300 -780 Descending Miami Center
02:45PM 27.2814 -79.7781 211° Southwest 308 354 9,600 -780 Descending Miami Center
02:46PM 27.2178 -79.8231 212° Southwest 295 339 8,800 -780 Descending Miami Center
02:47PM 27.1481 -79.8703 211° Southwest 302 348 8,100 -600 Descending Miami Center
02:48PM 27.0719 -79.9150 208° Southwest 297 342 7,600 -1,200 Descending Miami Center
02:49PM 27.0019 -79.9550 207° Southwest 285 328 5,800 -1,800 Descending Miami Center
02:50PM 26.9386 -79.9953 210° Southwest 285 328 4,100 -900 Descending Miami Center
02:51PM 26.8853 -80.0406 217° Southwest 274 315 4,000 -540 Descending Miami Center
02:52PM 26.8278 -80.0947 220° Southwest 274 315 3,100 -480 Descending Miami Center
02:53PM 26.8050 -80.1778 253° West 257 296 3,100  Level Miami Center
02:55PM 26.6832 -80.0956 270° West  Level Estimated
03:02PM 26.6832 -80.0956 110° East  Level Estimated
03:03PM 26.6832 -80.0956 110° East  Level Estimated
03:04PM 26.6832 -80.0956 110° East  Level Estimated
03:05PM 26.6832 -80.0956 110° East  Level Estimated
03:06PM 26.6832 -80.0956 110° East  Level Estimated
03:07PM 26.6832 -80.0956 110° East  Level Estimated
03:08PM 26.6832 -80.0956 110° East  Level Estimated